• Join FlightAware (Why Join?)
  • Login
  • US Flag 
06:30PM EDT


 

Airport Tracker/Info


-or-


 

Live Flight TrackerFlight Track Log ✈ SKW6345 ✈ 17-Dec-2013 ✈ KSFO - CYVR

Flight Track Log - Related Links

Times and Time Zones

All times are in EST time to prevent confusion due to time zone crossing. See the SKW6345 flight status page for this flight to view local times or setup timezone preferences in your user account.

Time Position Orientation Groundspeed Altitude Reporting Facility
EST Latitude Longitude Course Direction KTS MPH feet Rate Location/Type
03:51PM 37.6500 -122.3333 North 172 198 2,300  Level Northern Cal TRACON
03:53PM 37.7714 -122.2931 15° North 269 310 6,400 2,160 Climbing Oakland Center
03:54PM 38.0623 -122.3428 11° North  Level FlightAware Approximate
03:54PM 37.8525 -122.2906 North 287 330 9,000  Level Oakland Center
03:55PM 38.1859 -122.3333 North  Level FlightAware Approximate
03:55PM 37.9561 -122.2878 North 309 356 11,200  Level Oakland Center
03:56PM 38.3102 -122.3323 North  Level FlightAware Approximate
03:56PM 38.0503 -122.2881 360° North 340 391 13,400  Level Oakland Center
03:57PM 38.4341 -122.3199 North  Level FlightAware Approximate
03:57PM 38.1453 -122.2881 360° North 345 397 15,500  Level Oakland Center
03:58PM 38.2433 -122.2872 360° North 353 406 17,100 1,440 Climbing Oakland Center
04:00PM 38.3450 -122.2878 360° North 365 420 18,500 1,440 Climbing Oakland Center
04:01PM 38.4500 -122.2889 360° North 375 432 20,100 1,440 Climbing Oakland Center
04:02PM 38.5572 -122.2867 North 384 442 21,500 1,380 Climbing Oakland Center
04:03PM 38.6875 -122.2872 360° North 393 452 23,000 1,260 Climbing Oakland Center
04:04PM 38.8008 -122.2867 360° North 402 463 24,200 1,020 Climbing Oakland Center
04:05PM 38.9144 -122.2867 360° North 405 466 25,200 1,020 Climbing Oakland Center
04:06PM 39.0306 -122.2878 360° North 412 474 26,300 960 Climbing Oakland Center
04:07PM 39.1497 -122.2864 North 423 487 27,200 540 Climbing Oakland Center
04:08PM 39.2719 -122.2881 359° North 437 503 27,400 480 Climbing Oakland Center
04:09PM 39.3983 -122.2869 360° North 449 517 28,200 780 Climbing Oakland Center
04:10PM 39.5428 -122.2867 360° North 449 517 29,100 720 Climbing Oakland Center
04:11PM 39.6675 -122.2847 North 449 517 29,700 480 Climbing Oakland Center
04:12PM 39.7953 -122.2861 360° North 456 525 30,200 480 Climbing Oakland Center
04:13PM 39.9239 -122.2856 360° North 460 529 30,800 480 Climbing Oakland Center
04:14PM 40.0506 -122.2861 360° North 458 527 31,300 480 Climbing Oakland Center
04:15PM 40.1881 -122.2864 360° North 462 532 31,900 300 Climbing Oakland Center
04:16PM 40.3264 -122.2858 360° North 473 544 32,000  Climbing Oakland Center
04:17PM 40.4583 -122.2867 360° North 476 548 32,000  Level Oakland Center
04:18PM 40.5917 -122.2842 North 480 552 32,000  Level Oakland Center
04:19PM 40.7247 -122.2836 360° North 479 551 32,000  Level Oakland Center
04:20PM 40.8544 -122.2833 360° North 469 540 32,000  Level Oakland Center
04:21PM 40.9836 -122.2836 360° North 464 534 32,000  Level Oakland Center
04:22PM 41.1386 -122.2872 359° North 465 535 32,000  Level Oakland Center
04:23PM 41.2664 -122.2869 360° North 461 531 32,000  Level Oakland Center
04:24PM 41.3775 -122.2825 North 456 525 32,000  Level Oakland Center
04:25PM 41.5033 -122.2822 360° North 453 521 32,000  Level Oakland Center
04:26PM 41.6308 -122.2828 360° North 456 525 32,000  Level Oakland Center
04:27PM 41.7825 -122.2844 360° North 454 522 32,000  Level Oakland Center
04:28PM 41.9089 -122.2842 360° North 452 520 32,000  Level Oakland Center
04:29PM 42.0364 -122.2839 360° North 453 521 32,000  Level Oakland Center
04:30PM 42.1633 -122.2822 North 451 519 32,000  Level Oakland Center
04:31PM 42.2881 -122.2822 360° North 447 514 32,000  Level Oakland Center
04:33PM 42.4589 -122.2822 360° North 439 505 32,000  Level Seattle Center
04:34PM 42.5806 -122.2825 360° North 439 505 32,000  Level Seattle Center
04:35PM 42.7000 -122.2822 360° North 432 497 32,000  Level Seattle Center
04:36PM 42.8283 -122.2808 360° North 426 490 32,000  Level Seattle Center
04:37PM 42.9469 -122.2808 360° North 425 489 32,000  Level Seattle Center
04:38PM 43.0619 -122.2828 359° North 417 480 32,000  Level Seattle Center
04:39PM 43.1806 -122.2828 360° North 425 489 32,000  Level Seattle Center
04:40PM 43.2975 -122.2833 360° North 423 487 32,000  Level Seattle Center
04:41PM 43.4164 -122.2814 North 426 490 32,000  Level Seattle Center
04:42PM 43.5344 -122.2808 360° North 427 491 32,000  Level Seattle Center
04:43PM 43.6522 -122.2803 360° North 427 491 32,000  Level Seattle Center
04:44PM 43.7697 -122.2817 360° North 425 489 32,000  Level Seattle Center
04:45PM 43.8886 -122.2806 360° North 428 493 32,000  Level Seattle Center
04:46PM 44.0069 -122.2806 360° North 427 491 32,000  Level Seattle Center
04:47PM 44.1478 -122.2797 360° North 424 488 32,000  Level Seattle Center
04:48PM 44.2653 -122.2800 360° North 423 487 32,000  Level Seattle Center
04:49PM 44.3825 -122.2817 359° North 422 486 32,000  Level Seattle Center
04:50PM 44.4975 -122.2792 North 419 482 32,000  Level Seattle Center
04:51PM 44.6142 -122.2794 360° North 419 482 32,000  Level Seattle Center
04:52PM 44.7317 -122.2814 359° North 422 486 32,000  Level Seattle Center
04:53PM 44.8472 -122.2803 360° North 419 482 32,000  Level Seattle Center
04:54PM 44.9675 -122.2800 360° North 407 468 32,000  Level Seattle Center
04:55PM 45.0814 -122.2797 360° North 411 473 32,000  Level Seattle Center
04:56PM 45.1969 -122.2800 360° North 417 480 32,000  Level Seattle Center
04:57PM 45.3100 -122.2797 360° North 412 474 32,000  Level Seattle Center
04:58PM 45.4211 -122.2789 360° North 405 466 32,000  Level Seattle Center
04:59PM 45.5333 -122.2781 360° North 404 465 32,000  Level Seattle Center
05:00PM 45.6447 -122.2775 360° North 403 464 32,000  Level Seattle Center
05:01PM 45.7786 -122.2781 360° North 402 463 32,000  Level Seattle Center
05:02PM 45.8903 -122.2783 360° North 403 464 32,000  Level Seattle Center
05:03PM 46.0033 -122.2789 360° North 407 468 32,000  Level Seattle Center
05:04PM 46.1175 -122.2786 360° North 410 472 32,000  Level Seattle Center
05:05PM 46.2306 -122.2789 360° North 410 472 32,000  Level Seattle Center
05:06PM 46.3439 -122.2822 359° North 408 470 32,000  Level Seattle Center
05:07PM 46.4589 -122.2797 North 412 474 32,000  Level Seattle Center
05:08PM 46.5744 -122.2472 11° North 434 499 32,000  Level Seattle Center
05:09PM 46.6878 -122.1833 21° North 438 504 32,000  Level Seattle Center
05:10PM 46.8017 -122.1208 21° North 438 504 32,000  Level Seattle Center
05:11PM 46.9156 -122.0606 20° North 438 504 32,000  Level Seattle Center
05:12PM 47.0494 -122.0683 358° North 406 467 32,000  Level Seattle Center
05:13PM 47.1572 -122.1014 348° North 396 456 32,000  Level Seattle Center
05:14PM 47.2658 -122.1303 350° North 397 457 32,000  Level Seattle Center
05:15PM 47.3744 -122.1600 350° North 398 458 32,000  Level Seattle Center
05:16PM 47.4822 -122.1881 350° North 396 456 32,000  Level Seattle Center
05:17PM 47.5886 -122.2150 350° North 393 452 32,000  Level Seattle Center
05:18PM 47.6944 -122.2408 351° North 395 455 32,000 -420 Level Seattle Center
05:19PM 47.8006 -122.2686 350° North 397 457 31,200 -1,800 Descending Seattle Center
05:20PM 47.9264 -122.3019 350° North 388 447 28,400 -2,520 Descending Seattle Center
05:21PM 48.0325 -122.3308 350° North 391 450 26,100 -2,220 Descending Seattle Center
05:22PM 48.1069 -122.4158 323° Northwest 344 396 23,900 -2,040 Descending Seattle Center
05:23PM 48.1678 -122.5092 314° West 319 367 22,000 -1,920 Descending Seattle Center
05:25PM 48.2619 -122.5339 350° North 361 415 20,000 -1,980 Descending Seattle Center
05:26PM 48.3619 -122.5250 North 363 418 18,000 -1,680 Descending Seattle Center
05:27PM 48.4481 -122.4767 20° North 344 396 16,700 -1,680 Descending Seattle Center
05:28PM 48.5094 -122.3611 51° Northeast 352 405 14,700 -1,920 Descending Seattle Center
05:29PM 48.5786 -122.2758 39° Northeast 330 380 12,900 -1,380 Descending Seattle Center
05:30PM 48.6400 -122.3267 331° Northwest 275 316 12,000 -480 Descending Seattle Center
05:31PM 48.6731 -122.4164 299° West 251 289 12,000  Level Seattle Center
05:32PM 48.7103 -122.5058 302° West 250 288 12,000  Level Seattle Center
05:33PM 48.7500 -122.6167 299° West 260 299 12,000  Level Vancouver Center
05:34PM 48.8000 -122.6833 319° Northwest 250 288 12,000  Level Vancouver Center
05:35PM 48.8500 -122.7667 312° West 250 288 12,000 -120 Level Vancouver Center
05:36PM 48.9000 -122.8667 307° West 250 288 11,800 -360 Descending Vancouver Center
05:37PM 48.9333 -122.9333 307° West 250 288 11,300 -540 Descending Vancouver Center
05:38PM 48.9833 -123.0167 312° West 250 288 10,800 -540 Descending Vancouver Center
05:39PM 49.0333 -123.0833 319° Northwest 260 299 10,300 -1,200 Descending Vancouver Center
05:40PM 49.0667 -123.1833 297° West 250 288 8,500 -1,800 Descending Vancouver Center
05:41PM 49.0833 -123.2833 284° West 240 276 6,800 -1,380 Descending Vancouver Center
05:42PM 49.1000 -123.3833 284° West 240 276 5,800 -1,020 Descending Vancouver Center
05:43PM 49.1167 -123.4667 287° West 240 276 4,800 -1,140 Descending Vancouver Center
05:44PM 49.1333 -123.5667 284° West 210 242 3,600 -840 Descending Vancouver Center
05:45PM 49.1833 -123.5167 33° Northeast 210 242 3,200 -600 Descending Vancouver Center
05:46PM 49.2167 -123.4333 58° Northeast 220 253 2,500 -600 Descending Vancouver Center
05:47PM 49.2000 -123.3667 111° Southeast 190 219 2,000 -540 Descending Vancouver Center
05:48PM 49.2000 -123.2833 90° East 140 161 1,500 -660 Descending Vancouver Center
05:49PM 49.1833 -123.2333 117° Southeast 120 138 700 -720 Descending Vancouver Center
05:50PM 49.1833 -123.1833 90° East 120 138 100 -600 Descending Vancouver Center